createdAt,value
2022-12-01T00:01:24.330Z,15.77
2022-12-01T00:03:51.383Z,14.87
2022-12-01T00:06:20.541Z,17.03
2022-12-01T00:09:12.992Z,17.07
2022-12-01T00:11:42.288Z,14.70
2022-12-01T00:14:09.333Z,15.37
2022-12-01T00:16:36.518Z,16.73
2022-12-01T00:19:03.655Z,15.03
2022-12-01T00:21:30.760Z,15.00
2022-12-01T00:23:58.255Z,16.20
2022-12-01T00:26:27.286Z,16.23
2022-12-01T00:28:56.945Z,15.50
2022-12-01T00:31:25.037Z,18.30
2022-12-01T00:33:52.422Z,16.03
2022-12-01T00:36:20.062Z,13.70
2022-12-01T00:38:47.093Z,16.23
2022-12-01T00:41:14.282Z,14.40
2022-12-01T00:43:41.324Z,16.10
2022-12-01T00:46:08.877Z,15.77
2022-12-01T00:48:36.018Z,15.43
2022-12-01T00:51:03.348Z,14.67
2022-12-01T00:53:30.847Z,14.83
2022-12-01T00:55:57.886Z,14.53
2022-12-01T00:58:25.628Z,15.40
2022-12-01T01:01:01.233Z,14.87
2022-12-01T01:03:29.687Z,15.77
2022-12-01T01:05:57.028Z,16.03
2022-12-01T01:08:24.029Z,15.50
2022-12-01T01:10:51.081Z,15.67
2022-12-01T01:13:18.185Z,15.17
2022-12-01T01:15:45.213Z,17.20
2022-12-01T01:18:12.684Z,18.37
2022-12-01T01:20:39.929Z,17.23
2022-12-01T01:23:07.224Z,16.33
2022-12-01T01:25:34.460Z,16.83
2022-12-01T01:28:01.509Z,16.23
2022-12-01T01:30:28.865Z,15.40
2022-12-01T01:33:14.343Z,16.83
2022-12-01T01:35:41.330Z,14.77
2022-12-01T01:38:08.325Z,15.33
2022-12-01T01:40:42.128Z,14.67
2022-12-01T01:43:39.018Z,15.27
2022-12-01T01:46:07.182Z,14.07
2022-12-01T01:48:37.736Z,15.73
2022-12-01T01:51:06.036Z,16.38
2022-12-01T01:53:33.971Z,16.07
2022-12-01T01:56:03.295Z,16.37
2022-12-01T01:58:32.492Z,13.97
2022-12-01T02:00:59.564Z,14.50
2022-12-01T02:03:28.259Z,14.57
2022-12-01T02:05:58.329Z,15.17
2022-12-01T02:08:27.603Z,13.50
2022-12-01T02:11:20.788Z,12.70
2022-12-01T02:14:05.833Z,13.60
2022-12-01T02:16:51.583Z,12.37
2022-12-01T02:19:33.711Z,11.53
2022-12-01T02:22:09.725Z,14.30
2022-12-01T02:25:27.396Z,12.93
2022-12-01T02:28:24.956Z,13.07
2022-12-01T02:30:58.745Z,11.20
2022-12-01T02:33:43.863Z,13.47
2022-12-01T02:36:11.032Z,15.20
2022-12-01T02:38:51.756Z,12.20
2022-12-01T02:41:37.079Z,13.65
2022-12-01T02:44:46.008Z,10.10
2022-12-01T02:47:17.162Z,14.07
2022-12-01T02:49:49.799Z,12.97
2022-12-01T02:52:18.948Z,11.50
2022-12-01T02:54:48.466Z,11.73
2022-12-01T02:57:17.350Z,11.43
2022-12-01T02:59:49.825Z,12.10
2022-12-01T03:02:24.750Z,11.73
2022-12-01T03:05:07.088Z,12.27
2022-12-01T03:07:45.881Z,15.23
2022-12-01T03:10:48.326Z,14.00
2022-12-01T03:13:27.328Z,12.80
2022-12-01T03:16:29.889Z,11.67
2022-12-01T03:19:05.026Z,12.80
2022-12-01T03:22:01.695Z,13.07
2022-12-01T03:24:33.060Z,13.47
2022-12-01T03:27:03.221Z,13.73
2022-12-01T03:29:43.990Z,13.65
2022-12-01T03:32:33.876Z,12.23
2022-12-01T03:35:19.739Z,14.67
2022-12-01T03:37:49.599Z,12.67
2022-12-01T03:40:21.714Z,13.27
2022-12-01T03:43:01.526Z,13.37
2022-12-01T03:45:41.071Z,13.90
2022-12-01T03:48:08.567Z,13.97
2022-12-01T03:50:46.204Z,12.83
2022-12-01T03:53:24.835Z,14.90
2022-12-01T03:55:57.378Z,14.50
2022-12-01T03:58:34.144Z,14.37
2022-12-01T04:01:05.389Z,16.10
2022-12-01T04:03:33.432Z,12.47
2022-12-01T04:06:00.789Z,14.70
2022-12-01T04:08:28.203Z,11.27
2022-12-01T04:10:55.216Z,12.90
2022-12-01T04:13:25.818Z,14.07
2022-12-01T04:15:54.165Z,12.77
2022-12-01T04:18:21.855Z,12.87
2022-12-01T04:20:50.068Z,12.67
2022-12-01T04:23:35.688Z,13.33
2022-12-01T04:26:04.674Z,15.73
2022-12-01T04:28:31.709Z,13.17
2022-12-01T04:30:58.816Z,15.57
2022-12-01T04:33:25.878Z,14.17
2022-12-01T04:35:59.990Z,15.50
2022-12-01T04:38:30.891Z,13.47
2022-12-01T04:40:58.433Z,14.33
2022-12-01T04:43:25.463Z,13.10
2022-12-01T04:45:52.496Z,13.93
2022-12-01T04:48:19.555Z,14.93
2022-12-01T04:50:49.268Z,14.07
2022-12-01T04:53:16.288Z,13.93
2022-12-01T04:55:43.355Z,16.50
2022-12-01T04:58:10.488Z,14.47
2022-12-01T05:00:38.067Z,14.83
2022-12-01T05:03:05.184Z,14.03
2022-12-01T05:05:32.264Z,16.17
2022-12-01T05:07:59.712Z,14.30
2022-12-01T05:10:26.945Z,14.37
2022-12-01T05:12:55.307Z,15.60
2022-12-01T05:15:22.422Z,15.13
2022-12-01T05:17:49.558Z,14.60
2022-12-01T05:20:41.245Z,13.90
2022-12-01T05:23:12.282Z,12.53
2022-12-01T05:25:43.525Z,13.90
2022-12-01T05:28:10.575Z,13.60
2022-12-01T05:30:37.785Z,15.13
2022-12-01T05:33:04.829Z,12.57
2022-12-01T05:35:33.721Z,15.40
2022-12-01T05:38:06.072Z,15.10
2022-12-01T05:40:34.885Z,15.53
2022-12-01T05:43:02.013Z,15.13
2022-12-01T05:45:29.624Z,15.77
2022-12-01T05:47:58.052Z,13.90
2022-12-01T05:50:26.313Z,15.23
2022-12-01T05:52:55.771Z,14.13
2022-12-01T05:55:22.956Z,13.33
2022-12-01T05:57:50.013Z,14.87
2022-12-01T06:00:17.568Z,15.57
2022-12-01T06:02:44.950Z,13.57
2022-12-01T06:05:11.956Z,15.27
2022-12-01T06:07:40.542Z,13.27
2022-12-01T06:10:09.570Z,14.57
2022-12-01T06:12:37.053Z,16.63
2022-12-01T06:15:07.327Z,18.13
2022-12-01T06:17:39.937Z,15.40
2022-12-01T06:20:09.263Z,13.20
2022-12-01T06:22:36.497Z,14.53
2022-12-01T06:25:03.861Z,15.17
2022-12-01T06:27:30.922Z,13.67
2022-12-01T06:29:57.953Z,12.70
2022-12-01T06:32:24.939Z,14.40
2022-12-01T06:34:51.984Z,14.90
2022-12-01T06:37:19.110Z,15.23
2022-12-01T06:39:46.288Z,14.60
2022-12-01T06:42:13.508Z,15.53
2022-12-01T06:44:40.521Z,15.57
2022-12-01T06:47:08.321Z,17.00
2022-12-01T06:49:36.270Z,15.63
2022-12-01T06:52:03.285Z,16.97
2022-12-01T06:54:30.687Z,13.57
2022-12-01T06:56:58.647Z,12.97
2022-12-01T06:59:26.302Z,14.73
2022-12-01T07:01:53.716Z,15.70
2022-12-01T07:04:20.892Z,14.90
2022-12-01T07:06:47.974Z,14.27
2022-12-01T07:09:15.107Z,13.67
2022-12-01T07:11:42.208Z,15.47
2022-12-01T07:14:17.845Z,13.80
2022-12-01T07:16:44.921Z,14.90
2022-12-01T07:19:11.948Z,16.27
2022-12-01T07:21:39.007Z,14.27
2022-12-01T07:24:06.417Z,13.03
2022-12-01T07:26:33.529Z,13.93
2022-12-01T07:29:00.610Z,15.73
2022-12-01T07:31:27.709Z,14.70
2022-12-01T07:33:54.793Z,16.03
2022-12-01T07:36:21.808Z,14.50
2022-12-01T07:38:48.854Z,18.93
2022-12-01T07:41:19.259Z,17.77
2022-12-01T07:43:48.419Z,18.70
2022-12-01T07:46:23.589Z,16.93
2022-12-01T07:48:52.021Z,16.20
2022-12-01T07:51:19.393Z,17.10
2022-12-01T07:53:49.411Z,16.37
2022-12-01T07:56:17.650Z,16.02
2022-12-01T07:58:44.751Z,17.13
2022-12-01T08:01:14.206Z,19.57
2022-12-01T08:03:42.487Z,16.17
2022-12-01T08:06:10.339Z,17.00
2022-12-01T08:08:39.212Z,16.00
2022-12-01T08:11:11.744Z,18.13
2022-12-01T08:13:39.317Z,18.27
2022-12-01T08:16:08.168Z,16.47
2022-12-01T08:18:36.512Z,19.37
2022-12-01T08:21:04.917Z,18.83
2022-12-01T08:23:32.115Z,19.30
2022-12-01T08:26:05.995Z,20.60
2022-12-01T08:28:36.229Z,21.40
2022-12-01T08:31:18.294Z,20.15
2022-12-01T08:33:46.453Z,19.00
2022-12-01T08:36:13.947Z,16.57
2022-12-01T08:38:46.998Z,18.30
2022-12-01T08:41:15.115Z,21.03
2022-12-01T08:44:00.326Z,19.73
2022-12-01T08:46:31.402Z,22.83
2022-12-01T08:48:58.652Z,16.17
2022-12-01T08:51:26.403Z,24.60
2022-12-01T08:53:55.481Z,22.93
2022-12-01T08:56:28.658Z,22.67
2022-12-01T08:58:56.079Z,21.17
2022-12-01T09:01:23.381Z,22.00
2022-12-01T09:04:05.501Z,20.50
2022-12-01T09:06:37.668Z,19.23
2022-12-01T09:09:04.967Z,20.80
2022-12-01T09:11:32.027Z,24.80
2022-12-01T09:13:59.320Z,16.57
2022-12-01T09:16:26.633Z,23.50
2022-12-01T09:18:54.781Z,21.33
2022-12-01T09:21:30.778Z,15.73
2022-12-01T09:23:58.351Z,23.10
2022-12-01T09:26:25.994Z,23.00
2022-12-01T09:28:55.079Z,22.80
2022-12-01T09:31:25.966Z,23.67
2022-12-01T09:33:58.552Z,22.35
2022-12-01T09:36:26.559Z,25.37
2022-12-01T09:38:53.862Z,21.43
2022-12-01T09:41:33.110Z,23.67
2022-12-01T09:44:25.376Z,25.03
2022-12-01T09:46:55.261Z,24.70
2022-12-01T09:49:26.597Z,26.03
2022-12-01T09:51:55.225Z,24.90
2022-12-01T09:54:22.267Z,24.97
2022-12-01T09:56:55.526Z,21.97
2022-12-01T09:59:27.020Z,23.47
2022-12-01T10:02:00.327Z,22.43
2022-12-01T10:04:41.891Z,21.00
2022-12-01T10:07:34.090Z,22.20
2022-12-01T10:10:11.934Z,23.00
2022-12-01T10:12:42.647Z,20.87
2022-12-01T10:15:15.511Z,20.20
2022-12-01T10:18:15.489Z,21.93
2022-12-01T10:21:04.710Z,21.20
2022-12-01T10:23:51.667Z,19.10
2022-12-01T10:26:31.645Z,22.30
2022-12-01T10:29:47.936Z,20.90
2022-12-01T10:32:32.590Z,18.93
2022-12-01T10:34:59.688Z,20.03
2022-12-01T10:37:30.506Z,23.87
2022-12-01T10:39:58.644Z,23.35
2022-12-01T10:42:39.409Z,21.63
2022-12-01T10:45:13.946Z,23.10
2022-12-01T10:48:26.902Z,21.97
2022-12-01T10:50:56.873Z,20.27
2022-12-01T10:53:23.809Z,21.23
2022-12-01T10:56:18.421Z,23.37
2022-12-01T10:58:48.802Z,23.00
2022-12-01T11:01:27.868Z,24.27
2022-12-01T11:03:58.737Z,22.17
2022-12-01T11:06:29.074Z,23.45
2022-12-01T11:09:03.541Z,24.83
2022-12-01T11:11:36.169Z,22.00
2022-12-01T11:14:07.355Z,23.67
2022-12-01T11:16:38.446Z,23.87
2022-12-01T11:19:14.697Z,23.90
2022-12-01T11:21:50.900Z,24.00
2022-12-01T11:24:43.681Z,25.40
2022-12-01T11:27:23.157Z,26.17
2022-12-01T11:29:53.006Z,23.57
2022-12-01T11:32:27.000Z,24.17
2022-12-01T11:34:58.548Z,24.53
2022-12-01T11:37:36.160Z,26.17
2022-12-01T11:40:09.915Z,26.20
2022-12-01T11:42:37.813Z,25.73
2022-12-01T11:45:22.622Z,24.33
2022-12-01T11:48:12.400Z,26.33
2022-12-01T11:50:41.798Z,25.30
2022-12-01T11:53:36.726Z,25.17
2022-12-01T11:56:18.052Z,25.30
2022-12-01T11:58:48.313Z,24.80
2022-12-01T12:01:49.488Z,26.30
2022-12-01T12:04:25.441Z,21.77
2022-12-01T12:07:04.547Z,24.70
2022-12-01T12:09:51.919Z,26.37
2022-12-01T12:12:40.783Z,24.23
2022-12-01T12:15:14.803Z,25.13
2022-12-01T12:17:59.687Z,25.70
2022-12-01T12:20:54.630Z,25.77
2022-12-01T12:23:27.743Z,28.97
2022-12-01T12:26:26.277Z,29.70
2022-12-01T12:29:30.576Z,28.83
2022-12-01T12:32:29.045Z,28.30
2022-12-01T12:35:16.442Z,28.17
2022-12-01T12:38:15.944Z,25.60
2022-12-01T12:40:55.059Z,28.97
2022-12-01T12:43:32.082Z,27.33
2022-12-01T12:46:15.615Z,24.57
2022-12-01T12:49:12.055Z,25.07
2022-12-01T12:51:38.232Z,29.40
2022-12-01T12:54:28.049Z,25.63
2022-12-01T12:57:02.222Z,27.00
2022-12-01T13:00:00.202Z,27.77
2022-12-01T13:03:06.197Z,28.27
2022-12-01T13:05:52.972Z,26.30
2022-12-01T13:08:34.766Z,24.70
2022-12-01T13:11:18.513Z,31.43
2022-12-01T13:13:45.453Z,29.73
2022-12-01T13:16:18.525Z,29.57
2022-12-01T13:18:51.570Z,27.77
2022-12-01T13:21:21.096Z,31.67
2022-12-01T13:23:50.102Z,28.33
2022-12-01T13:26:20.565Z,28.80
2022-12-01T13:28:53.845Z,33.08
2022-12-01T13:31:22.057Z,34.00
2022-12-01T13:34:02.127Z,28.60
2022-12-01T13:36:46.351Z,28.17
2022-12-01T13:39:28.890Z,28.13
2022-12-01T13:42:18.520Z,30.50
2022-12-01T13:44:55.767Z,26.20
2022-12-01T13:47:47.697Z,30.37
2022-12-01T13:50:51.621Z,24.77
2022-12-01T13:53:33.926Z,26.93
2022-12-01T13:56:03.727Z,23.47
2022-12-01T13:58:33.835Z,12.50
2022-12-01T14:01:19.636Z,13.23
2022-12-01T14:04:22.121Z,27.33
2022-12-01T14:07:10.262Z,27.10
2022-12-01T14:09:41.576Z,32.97
2022-12-01T14:12:11.552Z,33.83
2022-12-01T14:14:49.603Z,28.47
2022-12-01T14:17:38.313Z,24.83
2022-12-01T14:20:14.828Z,28.57
2022-12-01T14:22:46.922Z,24.00
2022-12-01T14:25:20.557Z,22.33
2022-12-01T14:27:51.496Z,14.33
2022-12-01T14:30:40.708Z,31.00
2022-12-01T14:33:45.297Z,26.20
2022-12-01T14:36:12.306Z,29.40
2022-12-01T14:38:40.694Z,25.30
2022-12-01T14:41:10.525Z,20.93
2022-12-01T14:43:59.527Z,24.83
2022-12-01T14:46:29.084Z,24.47
2022-12-01T14:48:58.814Z,22.30
2022-12-01T14:51:33.060Z,28.63
2022-12-01T14:54:04.309Z,27.00
2022-12-01T14:56:33.125Z,27.60
2022-12-01T14:59:13.769Z,23.87
2022-12-01T15:01:41.333Z,18.58
2022-12-01T15:04:08.508Z,22.97
2022-12-01T15:06:36.840Z,33.33
2022-12-01T15:09:36.511Z,27.40
2022-12-01T15:12:07.470Z,22.65
2022-12-01T15:14:46.194Z,25.38
2022-12-01T15:17:37.944Z,16.30
2022-12-01T15:20:25.467Z,21.17
2022-12-01T15:22:53.457Z,18.70
2022-12-01T15:25:21.000Z,20.43
2022-12-01T15:28:02.309Z,17.77
2022-12-01T15:30:30.196Z,17.13
2022-12-01T15:32:58.487Z,20.60
2022-12-01T15:35:26.596Z,18.67
2022-12-01T15:37:54.765Z,16.87
2022-12-01T15:43:26.874Z,17.50
2022-12-01T15:45:59.831Z,12.70
2022-12-01T15:48:32.732Z,21.53
2022-12-01T15:51:13.817Z,17.63
2022-12-01T15:56:12.737Z,17.80
2022-12-01T15:58:46.192Z,20.37
2022-12-01T16:01:18.065Z,29.20
2022-12-01T16:04:22.044Z,18.70
2022-12-01T16:07:00.834Z,17.37
2022-12-01T16:09:41.066Z,20.53
2022-12-01T16:12:16.979Z,19.25
2022-12-01T16:15:06.907Z,18.23
2022-12-01T16:17:46.749Z,21.67
2022-12-01T16:20:39.369Z,19.90
2022-12-01T16:23:11.987Z,18.57
2022-12-01T16:25:39.084Z,18.07
2022-12-01T16:28:17.728Z,18.80
2022-12-01T16:30:44.942Z,16.00
2022-12-01T16:33:19.817Z,19.80
2022-12-01T16:35:46.920Z,21.37
2022-12-01T16:38:20.666Z,20.50
2022-12-01T16:40:49.900Z,16.33
2022-12-01T16:43:19.559Z,22.40
2022-12-01T16:45:53.398Z,22.27
2022-12-01T16:48:20.694Z,19.37
2022-12-01T16:50:49.395Z,22.23
2022-12-01T16:53:16.798Z,18.97
2022-12-01T16:55:46.599Z,23.60
2022-12-01T16:58:14.468Z,22.00
2022-12-01T17:00:42.087Z,18.67
2022-12-01T17:03:12.904Z,17.73
2022-12-01T17:05:59.575Z,25.37
2022-12-01T17:08:26.680Z,20.87
2022-12-01T17:10:54.437Z,19.43
2022-12-01T17:13:26.019Z,24.93
2022-12-01T17:15:55.459Z,26.83
2022-12-01T17:18:23.754Z,18.83
2022-12-01T17:21:02.023Z,12.95
2022-12-01T17:23:29.865Z,12.73
2022-12-01T17:25:57.008Z,23.50
2022-12-01T17:28:24.083Z,13.43
2022-12-01T17:30:51.352Z,14.03
2022-12-01T17:33:18.647Z,18.20
2022-12-01T17:35:45.908Z,19.03
2022-12-01T17:38:13.004Z,13.40
2022-12-01T17:40:40.055Z,19.90
2022-12-01T17:43:08.629Z,18.57
2022-12-01T17:45:42.056Z,15.87
2022-12-01T17:48:09.334Z,16.87
2022-12-01T17:50:38.296Z,14.60
2022-12-01T17:53:05.375Z,14.00
2022-12-01T17:55:33.745Z,17.07
2022-12-01T17:58:00.933Z,16.13
2022-12-01T18:00:28.037Z,18.83
2022-12-01T18:02:55.237Z,15.30
2022-12-01T18:05:22.449Z,13.33
2022-12-01T18:07:49.785Z,15.50
2022-12-01T18:10:18.227Z,14.37
2022-12-01T18:12:45.376Z,14.63
2022-12-01T18:15:13.516Z,12.63
2022-12-01T18:17:40.628Z,13.40
2022-12-01T18:20:08.679Z,16.97
2022-12-01T18:22:35.767Z,14.10
2022-12-01T18:25:04.282Z,10.77
2022-12-01T18:27:31.389Z,14.50
2022-12-01T18:29:58.489Z,16.13
2022-12-01T18:32:25.581Z,14.87
2022-12-01T18:34:53.080Z,11.37
2022-12-01T18:37:20.431Z,13.67
2022-12-01T18:39:47.598Z,14.00
2022-12-01T18:42:14.704Z,14.80
2022-12-01T18:44:42.495Z,15.03
2022-12-01T18:47:09.802Z,14.63
2022-12-01T18:49:37.032Z,14.80
2022-12-01T18:52:04.988Z,14.03
2022-12-01T18:54:32.118Z,14.00
2022-12-01T18:56:59.534Z,14.90
2022-12-01T18:59:27.159Z,13.80
2022-12-01T19:01:55.024Z,14.50
2022-12-01T19:04:22.241Z,16.30
2022-12-01T19:06:49.410Z,15.50
2022-12-01T19:09:17.589Z,16.47
2022-12-01T19:11:44.984Z,14.70
2022-12-01T19:14:17.564Z,15.30
2022-12-01T19:16:46.049Z,14.63
2022-12-01T19:19:13.335Z,15.67
2022-12-01T19:21:40.868Z,16.60
2022-12-01T19:24:08.151Z,15.93
2022-12-01T19:26:35.399Z,18.43
2022-12-01T19:29:03.898Z,15.37
2022-12-01T19:31:31.166Z,17.30
2022-12-01T19:33:58.351Z,16.57
2022-12-01T19:36:28.910Z,15.40
2022-12-01T19:38:57.874Z,14.95
2022-12-01T19:41:25.945Z,23.20
2022-12-01T19:43:54.372Z,16.13
2022-12-01T19:46:24.325Z,16.50
2022-12-01T19:49:03.916Z,16.42
2022-12-01T19:51:37.055Z,15.20
2022-12-01T19:54:06.553Z,14.77
2022-12-01T19:56:33.875Z,16.63
2022-12-01T19:59:02.352Z,13.90
2022-12-01T20:01:30.881Z,13.70
2022-12-01T20:03:58.058Z,12.43
2022-12-01T20:06:28.128Z,14.63
2022-12-01T20:08:59.053Z,12.47
2022-12-01T20:13:54.052Z,8.50
2022-12-01T20:16:24.723Z,11.23
2022-12-01T20:18:53.204Z,18.75
2022-12-01T20:21:26.664Z,14.00
2022-12-01T20:23:58.268Z,14.73
2022-12-01T20:26:30.604Z,13.47
2022-12-01T20:29:01.530Z,12.83
2022-12-01T20:31:30.220Z,13.02
2022-12-01T20:33:58.959Z,9.37
2022-12-01T20:36:26.683Z,9.43
2022-12-01T20:38:54.739Z,15.17
2022-12-01T20:41:22.148Z,16.60
2022-12-01T20:43:49.235Z,11.90
2022-12-01T20:46:16.620Z,18.10
2022-12-01T20:48:43.950Z,21.10
2022-12-01T20:51:14.224Z,14.80
2022-12-01T20:53:54.437Z,19.95
2022-12-01T20:56:29.458Z,18.63
2022-12-01T20:58:59.292Z,16.67
2022-12-01T21:01:26.945Z,19.10
2022-12-01T21:03:54.158Z,19.17
2022-12-01T21:06:21.842Z,16.53
2022-12-01T21:08:50.632Z,19.33
2022-12-01T21:11:48.320Z,18.13
2022-12-01T21:14:21.194Z,18.67
2022-12-01T21:16:49.440Z,17.90
2022-12-01T21:19:51.276Z,16.23
2022-12-01T21:22:19.373Z,13.00
2022-12-01T21:24:51.726Z,20.43
2022-12-01T21:27:19.129Z,19.57
2022-12-01T21:29:48.494Z,22.27
2022-12-01T21:32:44.048Z,19.47
2022-12-01T21:35:20.764Z,15.20
2022-12-01T21:37:49.145Z,17.83
2022-12-01T21:40:20.676Z,17.23
2022-12-01T21:42:48.371Z,13.73
2022-12-01T21:45:28.806Z,15.70
2022-12-01T21:48:00.498Z,13.27
2022-12-01T21:50:27.702Z,14.77
2022-12-01T21:52:54.772Z,19.00
2022-12-01T21:55:24.723Z,16.93
2022-12-01T21:57:53.454Z,14.20
2022-12-01T22:00:35.420Z,9.10
2022-12-01T22:03:08.303Z,4.80
2022-12-01T22:05:39.283Z,13.87
2022-12-01T22:10:56.444Z,11.13
2022-12-01T22:13:35.364Z,14.67
2022-12-01T22:16:02.542Z,11.73
2022-12-01T22:18:37.031Z,13.03
2022-12-01T22:21:22.243Z,14.07
2022-12-01T22:23:57.239Z,18.33
2022-12-01T22:26:25.631Z,14.13
2022-12-01T22:28:56.323Z,13.97
2022-12-01T22:31:23.578Z,17.02
2022-12-01T22:34:02.820Z,13.80
2022-12-01T22:36:33.452Z,16.27
2022-12-01T22:39:01.471Z,11.63
2022-12-01T22:41:28.931Z,15.40
2022-12-01T22:43:56.719Z,10.90
2022-12-01T22:46:31.645Z,12.43
2022-12-01T22:49:02.790Z,17.33
2022-12-01T22:52:02.129Z,16.53
2022-12-01T22:54:34.258Z,15.23
2022-12-01T22:57:26.290Z,14.67
2022-12-01T22:59:54.472Z,14.40
2022-12-01T23:02:23.476Z,9.57
2022-12-01T23:04:58.844Z,13.80
2022-12-01T23:07:37.537Z,9.63
2022-12-01T23:10:13.258Z,16.40
2022-12-01T23:12:41.024Z,16.87
2022-12-01T23:15:22.897Z,18.37
2022-12-01T23:17:50.757Z,17.63
2022-12-01T23:20:17.811Z,16.30
2022-12-01T23:22:44.946Z,15.03
2022-12-01T23:25:18.061Z,19.23
2022-12-01T23:27:47.482Z,16.10
2022-12-01T23:30:16.489Z,23.20
2022-12-01T23:32:44.794Z,21.23
2022-12-01T23:35:17.131Z,18.43
2022-12-01T23:37:47.871Z,18.33
2022-12-01T23:40:31.842Z,12.65
2022-12-01T23:43:21.877Z,15.00
2022-12-01T23:45:52.004Z,16.63
2022-12-01T23:48:25.563Z,16.63
2022-12-01T23:50:54.535Z,17.57
2022-12-01T23:53:31.807Z,16.37
2022-12-01T23:56:05.752Z,15.67
2022-12-01T23:58:34.475Z,18.07
